sensor_id;sensor_type;location;lat;lon;timestamp;temperature;humidity
9083;DHT22;4577;48.704;9.000;2023-06-24T00:01:28;19.60;57.30
9083;DHT22;4577;48.704;9.000;2023-06-24T00:03:54;19.60;57.40
9083;DHT22;4577;48.704;9.000;2023-06-24T00:06:20;19.70;57.20
9083;DHT22;4577;48.704;9.000;2023-06-24T00:08:48;19.50;57.40
9083;DHT22;4577;48.704;9.000;2023-06-24T00:11:14;19.50;58.20
9083;DHT22;4577;48.704;9.000;2023-06-24T00:13:41;19.50;58.20
9083;DHT22;4577;48.704;9.000;2023-06-24T00:16:07;19.60;57.80
9083;DHT22;4577;48.704;9.000;2023-06-24T00:18:34;19.50;57.80
9083;DHT22;4577;48.704;9.000;2023-06-24T00:20:59;19.40;58.00
9083;DHT22;4577;48.704;9.000;2023-06-24T00:23:27;19.30;58.70
9083;DHT22;4577;48.704;9.000;2023-06-24T00:25:54;19.00;58.60
9083;DHT22;4577;48.704;9.000;2023-06-24T00:28:21;19.20;59.10
9083;DHT22;4577;48.704;9.000;2023-06-24T00:30:47;19.20;59.30
9083;DHT22;4577;48.704;9.000;2023-06-24T00:33:13;19.20;59.30
9083;DHT22;4577;48.704;9.000;2023-06-24T00:35:42;19.20;59.20
9083;DHT22;4577;48.704;9.000;2023-06-24T00:38:11;19.20;59.70
9083;DHT22;4577;48.704;9.000;2023-06-24T00:40:37;19.00;59.80
9083;DHT22;4577;48.704;9.000;2023-06-24T00:43:03;19.00;60.10
9083;DHT22;4577;48.704;9.000;2023-06-24T00:45:29;18.90;60.00
9083;DHT22;4577;48.704;9.000;2023-06-24T00:48:00;19.00;59.70
9083;DHT22;4577;48.704;9.000;2023-06-24T00:50:26;18.80;60.00
9083;DHT22;4577;48.704;9.000;2023-06-24T00:52:52;18.70;60.00
9083;DHT22;4577;48.704;9.000;2023-06-24T00:55:18;21.50;63.70
9083;DHT22;4577;48.704;9.000;2023-06-24T00:57:49;18.70;60.70
9083;DHT22;4577;48.704;9.000;2023-06-24T01:00:18;18.80;60.50
9083;DHT22;4577;48.704;9.000;2023-06-24T01:02:47;18.70;60.40
9083;DHT22;4577;48.704;9.000;2023-06-24T01:05:13;18.60;60.90
9083;DHT22;4577;48.704;9.000;2023-06-24T01:07:41;18.60;60.60
9083;DHT22;4577;48.704;9.000;2023-06-24T01:10:08;18.60;60.70
9083;DHT22;4577;48.704;9.000;2023-06-24T01:12:37;18.50;61.00
9083;DHT22;4577;48.704;9.000;2023-06-24T01:15:05;18.40;61.20
9083;DHT22;4577;48.704;9.000;2023-06-24T01:33:50;17.90;61.30
9083;DHT22;4577;48.704;9.000;2023-06-24T01:36:20;18.10;61.10
9083;DHT22;4577;48.704;9.000;2023-06-24T01:38:56;18.40;61.40
9083;DHT22;4577;48.704;9.000;2023-06-24T01:41:25;18.20;61.50
9083;DHT22;4577;48.704;9.000;2023-06-24T01:43:56;18.20;61.10
9083;DHT22;4577;48.704;9.000;2023-06-24T01:46:25;18.20;61.30
9083;DHT22;4577;48.704;9.000;2023-06-24T01:48:55;18.20;61.50
9083;DHT22;4577;48.704;9.000;2023-06-24T01:51:24;17.80;61.80
9083;DHT22;4577;48.704;9.000;2023-06-24T01:54:00;18.10;61.90
9083;DHT22;4577;48.704;9.000;2023-06-24T01:56:27;17.90;61.60
9083;DHT22;4577;48.704;9.000;2023-06-24T01:58:56;18.00;62.00
9083;DHT22;4577;48.704;9.000;2023-06-24T02:01:23;18.10;62.10
9083;DHT22;4577;48.704;9.000;2023-06-24T02:03:50;18.20;62.00
9083;DHT22;4577;48.704;9.000;2023-06-24T02:06:19;17.80;62.40
9083;DHT22;4577;48.704;9.000;2023-06-24T02:08:47;17.50;62.40
9083;DHT22;4577;48.704;9.000;2023-06-24T02:11:14;17.60;62.70
9083;DHT22;4577;48.704;9.000;2023-06-24T02:13:42;17.50;63.00
9083;DHT22;4577;48.704;9.000;2023-06-24T02:16:09;17.70;62.60
9083;DHT22;4577;48.704;9.000;2023-06-24T02:18:38;17.60;62.40
9083;DHT22;4577;48.704;9.000;2023-06-24T02:21:08;17.70;62.50
9083;DHT22;4577;48.704;9.000;2023-06-24T02:23:35;17.60;62.40
9083;DHT22;4577;48.704;9.000;2023-06-24T02:26:02;17.70;62.70
9083;DHT22;4577;48.704;9.000;2023-06-24T02:28:29;17.50;62.90
9083;DHT22;4577;48.704;9.000;2023-06-24T02:30:57;17.60;63.00
9083;DHT22;4577;48.704;9.000;2023-06-24T02:33:23;17.90;63.00
9083;DHT22;4577;48.704;9.000;2023-06-24T02:35:49;17.50;62.80
9083;DHT22;4577;48.704;9.000;2023-06-24T02:38:15;17.60;63.00
9083;DHT22;4577;48.704;9.000;2023-06-24T02:40:43;17.40;63.40
9083;DHT22;4577;48.704;9.000;2023-06-24T02:45:36;17.50;63.50
9083;DHT22;4577;48.704;9.000;2023-06-24T02:48:03;17.40;63.60
9083;DHT22;4577;48.704;9.000;2023-06-24T02:50:30;17.40;63.60
9083;DHT22;4577;48.704;9.000;2023-06-24T02:52:56;17.30;63.90
9083;DHT22;4577;48.704;9.000;2023-06-24T02:55:23;17.40;63.70
9083;DHT22;4577;48.704;9.000;2023-06-24T02:57:49;18.20;64.60
9083;DHT22;4577;48.704;9.000;2023-06-24T03:00:16;17.20;63.90
9083;DHT22;4577;48.704;9.000;2023-06-24T03:02:43;17.20;63.80
9083;DHT22;4577;48.704;9.000;2023-06-24T03:05:10;17.10;64.30
9083;DHT22;4577;48.704;9.000;2023-06-24T03:07:37;17.20;65.40
9083;DHT22;4577;48.704;9.000;2023-06-24T03:10:03;17.30;64.60
9083;DHT22;4577;48.704;9.000;2023-06-24T03:12:31;17.30;64.50
9083;DHT22;4577;48.704;9.000;2023-06-24T03:19:50;17.40;65.00
9083;DHT22;4577;48.704;9.000;2023-06-24T03:22:16;17.10;64.70
9083;DHT22;4577;48.704;9.000;2023-06-24T03:24:42;17.40;64.50
9083;DHT22;4577;48.704;9.000;2023-06-24T03:27:08;17.10;64.20
9083;DHT22;4577;48.704;9.000;2023-06-24T03:32:00;17.30;64.80
9083;DHT22;4577;48.704;9.000;2023-06-24T03:34:26;17.30;64.60
9083;DHT22;4577;48.704;9.000;2023-06-24T03:36:53;17.30;64.00
9083;DHT22;4577;48.704;9.000;2023-06-24T03:39:22;17.30;64.10
9083;DHT22;4577;48.704;9.000;2023-06-24T03:41:48;16.90;64.20
9083;DHT22;4577;48.704;9.000;2023-06-24T03:44:14;17.10;65.00
9083;DHT22;4577;48.704;9.000;2023-06-24T03:46:40;16.90;65.50
9083;DHT22;4577;48.704;9.000;2023-06-24T03:49:05;17.10;65.90
9083;DHT22;4577;48.704;9.000;2023-06-24T03:51:32;17.10;65.60
9083;DHT22;4577;48.704;9.000;2023-06-24T03:53:57;17.10;65.10
9083;DHT22;4577;48.704;9.000;2023-06-24T04:01:15;17.10;65.10
9083;DHT22;4577;48.704;9.000;2023-06-24T04:03:45;16.90;65.40
9083;DHT22;4577;48.704;9.000;2023-06-24T04:06:10;16.90;66.20
9083;DHT22;4577;48.704;9.000;2023-06-24T04:08:36;16.90;65.90
9083;DHT22;4577;48.704;9.000;2023-06-24T04:11:05;16.90;66.60
9083;DHT22;4577;48.704;9.000;2023-06-24T04:13:35;17.10;66.40
9083;DHT22;4577;48.704;9.000;2023-06-24T04:16:01;17.00;65.80
9083;DHT22;4577;48.704;9.000;2023-06-24T04:18:26;17.10;66.30
9083;DHT22;4577;48.704;9.000;2023-06-24T04:20:53;17.20;66.70
9083;DHT22;4577;48.704;9.000;2023-06-24T04:25:45;17.10;65.90
9083;DHT22;4577;48.704;9.000;2023-06-24T04:30:37;16.80;66.40
9083;DHT22;4577;48.704;9.000;2023-06-24T04:33:04;16.70;66.70
9083;DHT22;4577;48.704;9.000;2023-06-24T04:37:56;16.80;67.40
9083;DHT22;4577;48.704;9.000;2023-06-24T04:40:22;16.90;67.40
9083;DHT22;4577;48.704;9.000;2023-06-24T04:47:40;16.80;67.30
9083;DHT22;4577;48.704;9.000;2023-06-24T04:50:06;16.80;67.60
9083;DHT22;4577;48.704;9.000;2023-06-24T04:52:35;16.90;68.00
9083;DHT22;4577;48.704;9.000;2023-06-24T04:55:01;16.80;69.00
9083;DHT22;4577;48.704;9.000;2023-06-24T04:57:31;16.90;68.80
9083;DHT22;4577;48.704;9.000;2023-06-24T04:59:58;17.00;68.70
9083;DHT22;4577;48.704;9.000;2023-06-24T05:02:24;17.20;69.00
9083;DHT22;4577;48.704;9.000;2023-06-24T05:04:50;16.80;68.40
9083;DHT22;4577;48.704;9.000;2023-06-24T05:07:16;17.10;69.00
9083;DHT22;4577;48.704;9.000;2023-06-24T05:09:42;16.80;68.70
9083;DHT22;4577;48.704;9.000;2023-06-24T05:12:09;17.20;68.30
9083;DHT22;4577;48.704;9.000;2023-06-24T05:14:36;17.30;68.50
9083;DHT22;4577;48.704;9.000;2023-06-24T05:17:02;17.30;68.20
9083;DHT22;4577;48.704;9.000;2023-06-24T05:26:49;17.20;68.60
9083;DHT22;4577;48.704;9.000;2023-06-24T05:29:15;17.20;68.60
9083;DHT22;4577;48.704;9.000;2023-06-24T05:31:41;17.20;68.50
9083;DHT22;4577;48.704;9.000;2023-06-24T05:34:07;17.30;68.40
9083;DHT22;4577;48.704;9.000;2023-06-24T05:36:33;17.30;68.10
9083;DHT22;4577;48.704;9.000;2023-06-24T05:44:04;17.40;67.90
9083;DHT22;4577;48.704;9.000;2023-06-24T05:46:30;17.40;68.00
9083;DHT22;4577;48.704;9.000;2023-06-24T05:48:56;17.70;68.30
9083;DHT22;4577;48.704;9.000;2023-06-24T05:51:22;17.40;68.10
9083;DHT22;4577;48.704;9.000;2023-06-24T05:53:47;17.50;68.00
9083;DHT22;4577;48.704;9.000;2023-06-24T06:01:07;17.50;68.20
9083;DHT22;4577;48.704;9.000;2023-06-24T06:03:32;17.50;67.90
9083;DHT22;4577;48.704;9.000;2023-06-24T06:05:58;17.60;68.00
9083;DHT22;4577;48.704;9.000;2023-06-24T06:08:24;17.60;67.50
9083;DHT22;4577;48.704;9.000;2023-06-24T06:10:49;17.70;67.20
9083;DHT22;4577;48.704;9.000;2023-06-24T06:13:15;17.70;66.90
9083;DHT22;4577;48.704;9.000;2023-06-24T06:20:32;17.90;66.80
9083;DHT22;4577;48.704;9.000;2023-06-24T06:22:58;17.80;66.80
9083;DHT22;4577;48.704;9.000;2023-06-24T06:25:24;17.80;66.90
9083;DHT22;4577;48.704;9.000;2023-06-24T06:27:49;17.40;66.60
9083;DHT22;4577;48.704;9.000;2023-06-24T06:30:15;17.70;66.80
9083;DHT22;4577;48.704;9.000;2023-06-24T06:32:41;17.80;66.70
9083;DHT22;4577;48.704;9.000;2023-06-24T06:35:07;17.70;67.30
9083;DHT22;4577;48.704;9.000;2023-06-24T06:37:33;17.80;67.30
9083;DHT22;4577;48.704;9.000;2023-06-24T06:39:59;17.50;66.40
9083;DHT22;4577;48.704;9.000;2023-06-24T06:42:25;17.80;66.70
9083;DHT22;4577;48.704;9.000;2023-06-24T06:49:43;17.90;65.40
9083;DHT22;4577;48.704;9.000;2023-06-24T06:57:04;18.10;67.10
9083;DHT22;4577;48.704;9.000;2023-06-24T06:59:31;18.20;65.80
9083;DHT22;4577;48.704;9.000;2023-06-24T07:04:23;18.30;64.70
9083;DHT22;4577;48.704;9.000;2023-06-24T07:06:48;18.20;64.30
9083;DHT22;4577;48.704;9.000;2023-06-24T07:11:41;18.40;64.50
9083;DHT22;4577;48.704;9.000;2023-06-24T07:14:07;18.40;64.30
9083;DHT22;4577;48.704;9.000;2023-06-24T07:18:59;18.60;62.80
9083;DHT22;4577;48.704;9.000;2023-06-24T07:26:16;18.80;60.90
9083;DHT22;4577;48.704;9.000;2023-06-24T07:28:42;18.90;61.00
9083;DHT22;4577;48.704;9.000;2023-06-24T07:31:08;18.90;61.10
9083;DHT22;4577;48.704;9.000;2023-06-24T07:33:34;18.80;61.50
9083;DHT22;4577;48.704;9.000;2023-06-24T07:36:00;19.00;61.90
9083;DHT22;4577;48.704;9.000;2023-06-24T07:38:27;19.00;61.50
9083;DHT22;4577;48.704;9.000;2023-06-24T07:40:53;19.00;60.80
9083;DHT22;4577;48.704;9.000;2023-06-24T07:43:19;18.90;60.60
9083;DHT22;4577;48.704;9.000;2023-06-24T07:45:44;18.90;60.70
9083;DHT22;4577;48.704;9.000;2023-06-24T07:48:10;19.00;60.80
9083;DHT22;4577;48.704;9.000;2023-06-24T07:50:37;19.10;59.90
9083;DHT22;4577;48.704;9.000;2023-06-24T07:53:03;19.20;59.90
9083;DHT22;4577;48.704;9.000;2023-06-24T07:55:28;19.20;59.80
9083;DHT22;4577;48.704;9.000;2023-06-24T07:57:54;19.20;59.80
9083;DHT22;4577;48.704;9.000;2023-06-24T08:00:19;19.20;61.40
9083;DHT22;4577;48.704;9.000;2023-06-24T08:02:45;19.20;61.90
9083;DHT22;4577;48.704;9.000;2023-06-24T08:05:11;19.30;61.70
9083;DHT22;4577;48.704;9.000;2023-06-24T08:07:37;19.50;60.40
9083;DHT22;4577;48.704;9.000;2023-06-24T08:10:04;19.50;58.90
9083;DHT22;4577;48.704;9.000;2023-06-24T08:12:29;19.50;59.10
9083;DHT22;4577;48.704;9.000;2023-06-24T08:14:55;19.60;59.40
9083;DHT22;4577;48.704;9.000;2023-06-24T08:17:20;19.70;59.10
9083;DHT22;4577;48.704;9.000;2023-06-24T08:19:46;20.00;58.00
9083;DHT22;4577;48.704;9.000;2023-06-24T08:22:12;20.00;58.30
9083;DHT22;4577;48.704;9.000;2023-06-24T08:24:39;19.90;58.20
9083;DHT22;4577;48.704;9.000;2023-06-24T08:27:05;19.90;58.10
9083;DHT22;4577;48.704;9.000;2023-06-24T08:29:30;20.00;57.10
9083;DHT22;4577;48.704;9.000;2023-06-24T08:31:56;20.10;56.20
9083;DHT22;4577;48.704;9.000;2023-06-24T08:34:22;20.10;54.30
9083;DHT22;4577;48.704;9.000;2023-06-24T08:36:47;20.00;52.60
9083;DHT22;4577;48.704;9.000;2023-06-24T08:39:13;20.00;53.20
9083;DHT22;4577;48.704;9.000;2023-06-24T08:41:38;20.20;55.00
9083;DHT22;4577;48.704;9.000;2023-06-24T08:44:04;20.20;54.00
9083;DHT22;4577;48.704;9.000;2023-06-24T08:46:31;20.20;54.90
9083;DHT22;4577;48.704;9.000;2023-06-24T08:52:11;20.20;55.00
9083;DHT22;4577;48.704;9.000;2023-06-24T08:54:38;20.30;55.30
9083;DHT22;4577;48.704;9.000;2023-06-24T08:57:06;20.40;54.90
9083;DHT22;4577;48.704;9.000;2023-06-24T08:59:36;20.50;54.30
9083;DHT22;4577;48.704;9.000;2023-06-24T09:02:02;20.50;54.20
9083;DHT22;4577;48.704;9.000;2023-06-24T09:04:28;20.50;54.40
9083;DHT22;4577;48.704;9.000;2023-06-24T09:06:53;20.50;53.60
9083;DHT22;4577;48.704;9.000;2023-06-24T09:09:20;20.50;54.10
9083;DHT22;4577;48.704;9.000;2023-06-24T09:12:00;20.60;53.00
9083;DHT22;4577;48.704;9.000;2023-06-24T09:14:28;20.60;51.50
9083;DHT22;4577;48.704;9.000;2023-06-24T09:16:56;20.90;50.20
9083;DHT22;4577;48.704;9.000;2023-06-24T09:19:26;21.00;50.80
9083;DHT22;4577;48.704;9.000;2023-06-24T09:22:15;21.00;51.70
9083;DHT22;4577;48.704;9.000;2023-06-24T09:24:47;21.00;51.20
9083;DHT22;4577;48.704;9.000;2023-06-24T09:27:17;20.90;50.20
9083;DHT22;4577;48.704;9.000;2023-06-24T09:29:47;20.90;51.30
9083;DHT22;4577;48.704;9.000;2023-06-24T09:32:13;21.00;51.70
9083;DHT22;4577;48.704;9.000;2023-06-24T09:34:45;21.10;51.00
9083;DHT22;4577;48.704;9.000;2023-06-24T09:37:21;21.20;51.40
9083;DHT22;4577;48.704;9.000;2023-06-24T09:39:50;21.40;51.00
9083;DHT22;4577;48.704;9.000;2023-06-24T09:42:21;21.40;50.90
9083;DHT22;4577;48.704;9.000;2023-06-24T09:44:55;21.40;50.20
9083;DHT22;4577;48.704;9.000;2023-06-24T09:47:22;21.30;50.80
9083;DHT22;4577;48.704;9.000;2023-06-24T09:49:53;21.30;49.60
9083;DHT22;4577;48.704;9.000;2023-06-24T09:52:20;21.30;48.60
9083;DHT22;4577;48.704;9.000;2023-06-24T09:54:50;21.50;49.40
9083;DHT22;4577;48.704;9.000;2023-06-24T09:57:28;21.70;49.30
9083;DHT22;4577;48.704;9.000;2023-06-24T09:59:57;22.00;47.80
9083;DHT22;4577;48.704;9.000;2023-06-24T10:02:25;22.10;47.00
9083;DHT22;4577;48.704;9.000;2023-06-24T10:04:55;22.20;46.00
9083;DHT22;4577;48.704;9.000;2023-06-24T10:07:22;22.10;46.00
9083;DHT22;4577;48.704;9.000;2023-06-24T10:09:50;22.30;46.50
9083;DHT22;4577;48.704;9.000;2023-06-24T10:12:17;22.40;44.50
9083;DHT22;4577;48.704;9.000;2023-06-24T10:14:44;22.20;45.30
9083;DHT22;4577;48.704;9.000;2023-06-24T10:17:12;22.30;46.20
9083;DHT22;4577;48.704;9.000;2023-06-24T10:19:41;22.30;46.00
9083;DHT22;4577;48.704;9.000;2023-06-24T10:22:09;22.30;45.80
9083;DHT22;4577;48.704;9.000;2023-06-24T10:24:38;22.30;46.00
9083;DHT22;4577;48.704;9.000;2023-06-24T10:27:13;22.30;45.10
9083;DHT22;4577;48.704;9.000;2023-06-24T10:29:45;22.40;45.00
9083;DHT22;4577;48.704;9.000;2023-06-24T10:32:12;22.40;45.10
9083;DHT22;4577;48.704;9.000;2023-06-24T10:42:38;22.30;44.70
9083;DHT22;4577;48.704;9.000;2023-06-24T10:47:40;22.30;42.90
9083;DHT22;4577;48.704;9.000;2023-06-24T10:50:08;22.50;42.70
9083;DHT22;4577;48.704;9.000;2023-06-24T10:52:40;22.40;43.00
9083;DHT22;4577;48.704;9.000;2023-06-24T10:55:06;22.50;44.10
9083;DHT22;4577;48.704;9.000;2023-06-24T10:57:35;22.80;44.50
9083;DHT22;4577;48.704;9.000;2023-06-24T11:00:02;23.00;43.40
9083;DHT22;4577;48.704;9.000;2023-06-24T11:02:28;22.90;44.00
9083;DHT22;4577;48.704;9.000;2023-06-24T11:04:56;22.90;47.20
9083;DHT22;4577;48.704;9.000;2023-06-24T11:07:27;22.90;43.00
9083;DHT22;4577;48.704;9.000;2023-06-24T11:10:07;23.00;42.30
9083;DHT22;4577;48.704;9.000;2023-06-24T11:12:35;23.10;41.40
9083;DHT22;4577;48.704;9.000;2023-06-24T11:15:09;23.20;41.80
9083;DHT22;4577;48.704;9.000;2023-06-24T11:17:36;23.40;42.30
9083;DHT22;4577;48.704;9.000;2023-06-24T11:20:09;23.40;42.00
9083;DHT22;4577;48.704;9.000;2023-06-24T11:22:35;23.40;43.20
9083;DHT22;4577;48.704;9.000;2023-06-24T11:25:00;23.50;40.10
9083;DHT22;4577;48.704;9.000;2023-06-24T11:27:28;23.50;41.30
9083;DHT22;4577;48.704;9.000;2023-06-24T11:29:56;23.50;40.00
9083;DHT22;4577;48.704;9.000;2023-06-24T11:32:24;23.40;40.90
9083;DHT22;4577;48.704;9.000;2023-06-24T11:37:18;23.60;39.90
9083;DHT22;4577;48.704;9.000;2023-06-24T11:39:44;23.60;41.60
9083;DHT22;4577;48.704;9.000;2023-06-24T11:42:11;23.60;38.30
9083;DHT22;4577;48.704;9.000;2023-06-24T11:44:42;23.50;39.30
9083;DHT22;4577;48.704;9.000;2023-06-24T11:47:10;23.50;40.00
9083;DHT22;4577;48.704;9.000;2023-06-24T11:49:52;22.30;40.40
9083;DHT22;4577;48.704;9.000;2023-06-24T11:52:18;23.60;39.60
9083;DHT22;4577;48.704;9.000;2023-06-24T11:54:44;23.80;39.40
9083;DHT22;4577;48.704;9.000;2023-06-24T11:57:10;23.70;39.20
9083;DHT22;4577;48.704;9.000;2023-06-24T11:59:38;23.70;39.30
9083;DHT22;4577;48.704;9.000;2023-06-24T12:02:04;23.70;37.70
9083;DHT22;4577;48.704;9.000;2023-06-24T12:04:30;23.70;37.00
9083;DHT22;4577;48.704;9.000;2023-06-24T12:06:57;23.70;35.10
9083;DHT22;4577;48.704;9.000;2023-06-24T12:09:23;23.70;35.60
9083;DHT22;4577;48.704;9.000;2023-06-24T12:11:49;23.80;36.40
9083;DHT22;4577;48.704;9.000;2023-06-24T12:14:15;23.80;36.70
9083;DHT22;4577;48.704;9.000;2023-06-24T12:16:40;24.00;37.10
9083;DHT22;4577;48.704;9.000;2023-06-24T12:19:07;24.20;36.40
9083;DHT22;4577;48.704;9.000;2023-06-24T12:21:33;24.10;34.50
9083;DHT22;4577;48.704;9.000;2023-06-24T12:23:59;24.10;34.50
9083;DHT22;4577;48.704;9.000;2023-06-24T12:26:25;24.10;33.20
9083;DHT22;4577;48.704;9.000;2023-06-24T12:28:53;24.00;33.60
9083;DHT22;4577;48.704;9.000;2023-06-24T12:31:19;24.00;34.20
9083;DHT22;4577;48.704;9.000;2023-06-24T12:33:45;24.10;35.60
9083;DHT22;4577;48.704;9.000;2023-06-24T12:36:10;24.20;35.80
9083;DHT22;4577;48.704;9.000;2023-06-24T12:38:36;24.30;34.10
9083;DHT22;4577;48.704;9.000;2023-06-24T12:41:02;24.30;33.50
9083;DHT22;4577;48.704;9.000;2023-06-24T12:43:27;24.20;33.30
9083;DHT22;4577;48.704;9.000;2023-06-24T12:45:53;24.10;33.30
9083;DHT22;4577;48.704;9.000;2023-06-24T12:48:19;24.00;34.00
9083;DHT22;4577;48.704;9.000;2023-06-24T12:50:44;24.20;35.20
9083;DHT22;4577;48.704;9.000;2023-06-24T12:53:10;24.40;34.90
9083;DHT22;4577;48.704;9.000;2023-06-24T12:55:36;24.70;34.60
9083;DHT22;4577;48.704;9.000;2023-06-24T12:58:02;24.90;33.30
9083;DHT22;4577;48.704;9.000;2023-06-24T13:00:28;24.80;34.70
9083;DHT22;4577;48.704;9.000;2023-06-24T13:02:53;24.80;34.60
9083;DHT22;4577;48.704;9.000;2023-06-24T13:05:19;24.90;35.10
9083;DHT22;4577;48.704;9.000;2023-06-24T13:07:45;25.00;34.40
9083;DHT22;4577;48.704;9.000;2023-06-24T13:10:11;25.20;34.40
9083;DHT22;4577;48.704;9.000;2023-06-24T13:12:37;25.30;33.60
9083;DHT22;4577;48.704;9.000;2023-06-24T13:15:04;25.20;31.90
9083;DHT22;4577;48.704;9.000;2023-06-24T13:17:30;25.20;32.10
9083;DHT22;4577;48.704;9.000;2023-06-24T13:19:56;25.20;33.20
9083;DHT22;4577;48.704;9.000;2023-06-24T13:22:23;25.40;33.40
9083;DHT22;4577;48.704;9.000;2023-06-24T13:24:49;25.50;33.80
9083;DHT22;4577;48.704;9.000;2023-06-24T13:29:43;25.50;30.20
9083;DHT22;4577;48.704;9.000;2023-06-24T13:32:09;25.70;30.00
9083;DHT22;4577;48.704;9.000;2023-06-24T13:34:35;25.50;30.20
9083;DHT22;4577;48.704;9.000;2023-06-24T13:37:01;25.60;30.40
9083;DHT22;4577;48.704;9.000;2023-06-24T13:39:27;25.50;30.00
9083;DHT22;4577;48.704;9.000;2023-06-24T13:44:19;25.60;31.60
9083;DHT22;4577;48.704;9.000;2023-06-24T13:46:45;25.80;31.30
9083;DHT22;4577;48.704;9.000;2023-06-24T13:49:11;25.80;29.50
9083;DHT22;4577;48.704;9.000;2023-06-24T13:51:37;25.90;33.10
9083;DHT22;4577;48.704;9.000;2023-06-24T13:54:03;26.00;30.40
9083;DHT22;4577;48.704;9.000;2023-06-24T13:56:29;26.10;31.00
9083;DHT22;4577;48.704;9.000;2023-06-24T13:58:55;26.10;30.90
9083;DHT22;4577;48.704;9.000;2023-06-24T14:01:22;26.10;31.40
9083;DHT22;4577;48.704;9.000;2023-06-24T14:03:48;26.30;30.00
9083;DHT22;4577;48.704;9.000;2023-06-24T14:06:16;26.20;30.60
9083;DHT22;4577;48.704;9.000;2023-06-24T14:08:43;26.60;29.40
9083;DHT22;4577;48.704;9.000;2023-06-24T14:11:08;26.10;29.80
9083;DHT22;4577;48.704;9.000;2023-06-24T14:16:02;26.60;29.10
9083;DHT22;4577;48.704;9.000;2023-06-24T14:20:58;26.40;28.20
9083;DHT22;4577;48.704;9.000;2023-06-24T14:23:24;26.20;28.40
9083;DHT22;4577;48.704;9.000;2023-06-24T14:25:51;26.40;29.00
9083;DHT22;4577;48.704;9.000;2023-06-24T14:30:43;26.80;29.10
9083;DHT22;4577;48.704;9.000;2023-06-24T14:33:09;26.70;28.70
9083;DHT22;4577;48.704;9.000;2023-06-24T14:35:35;26.80;28.60
9083;DHT22;4577;48.704;9.000;2023-06-24T14:45:18;27.30;30.30
9083;DHT22;4577;48.704;9.000;2023-06-24T14:47:44;27.30;29.40
9083;DHT22;4577;48.704;9.000;2023-06-24T14:52:36;27.00;29.10
9083;DHT22;4577;48.704;9.000;2023-06-24T14:57:28;27.10;28.40
9083;DHT22;4577;48.704;9.000;2023-06-24T14:59:53;27.30;29.50
9083;DHT22;4577;48.704;9.000;2023-06-24T15:02:19;27.60;29.00
9083;DHT22;4577;48.704;9.000;2023-06-24T15:09:37;27.80;28.50
9083;DHT22;4577;48.704;9.000;2023-06-24T15:16:54;27.90;27.20
9083;DHT22;4577;48.704;9.000;2023-06-24T15:19:23;27.80;27.40
9083;DHT22;4577;48.704;9.000;2023-06-24T15:29:07;27.90;28.40
9083;DHT22;4577;48.704;9.000;2023-06-24T15:31:32;27.80;27.10
9083;DHT22;4577;48.704;9.000;2023-06-24T15:33:58;27.70;28.20
9083;DHT22;4577;48.704;9.000;2023-06-24T15:38:53;27.60;28.10
9083;DHT22;4577;48.704;9.000;2023-06-24T15:48:37;27.90;28.30
9083;DHT22;4577;48.704;9.000;2023-06-24T15:58:21;27.70;27.10
9083;DHT22;4577;48.704;9.000;2023-06-24T16:00:47;27.90;27.80
9083;DHT22;4577;48.704;9.000;2023-06-24T16:03:13;27.80;28.10
9083;DHT22;4577;48.704;9.000;2023-06-24T16:05:38;27.90;28.40
9083;DHT22;4577;48.704;9.000;2023-06-24T16:10:30;28.00;28.50
9083;DHT22;4577;48.704;9.000;2023-06-24T16:12:56;28.10;27.60
9083;DHT22;4577;48.704;9.000;2023-06-24T16:15:22;28.10;28.40
9083;DHT22;4577;48.704;9.000;2023-06-24T16:17:48;28.00;28.40
9083;DHT22;4577;48.704;9.000;2023-06-24T16:20:14;28.10;28.50
9083;DHT22;4577;48.704;9.000;2023-06-24T16:22:45;28.20;28.90
9083;DHT22;4577;48.704;9.000;2023-06-24T16:27:38;28.20;27.90
9083;DHT22;4577;48.704;9.000;2023-06-24T16:30:04;27.90;28.30
9083;DHT22;4577;48.704;9.000;2023-06-24T16:44:40;28.60;27.70
9083;DHT22;4577;48.704;9.000;2023-06-24T16:47:06;28.60;27.30
9083;DHT22;4577;48.704;9.000;2023-06-24T16:51:58;28.60;27.50
9083;DHT22;4577;48.704;9.000;2023-06-24T16:54:24;28.60;27.70
9083;DHT22;4577;48.704;9.000;2023-06-24T16:56:52;28.80;27.40
9083;DHT22;4577;48.704;9.000;2023-06-24T16:59:18;28.80;27.10
9083;DHT22;4577;48.704;9.000;2023-06-24T17:06:36;29.10;26.90
9083;DHT22;4577;48.704;9.000;2023-06-24T17:09:03;28.50;26.80
9083;DHT22;4577;48.704;9.000;2023-06-24T17:13:55;28.60;27.50
9083;DHT22;4577;48.704;9.000;2023-06-24T17:16:21;28.40;27.30
9083;DHT22;4577;48.704;9.000;2023-06-24T17:23:38;28.60;26.90
9083;DHT22;4577;48.704;9.000;2023-06-24T17:33:22;28.30;27.20
9083;DHT22;4577;48.704;9.000;2023-06-24T17:35:49;28.40;27.80
9083;DHT22;4577;48.704;9.000;2023-06-24T17:38:14;28.60;28.00
9083;DHT22;4577;48.704;9.000;2023-06-24T17:40:41;28.60;27.30
9083;DHT22;4577;48.704;9.000;2023-06-24T17:43:07;28.60;27.50
9083;DHT22;4577;48.704;9.000;2023-06-24T17:55:17;28.90;27.60
9083;DHT22;4577;48.704;9.000;2023-06-24T17:57:43;28.80;26.90
9083;DHT22;4577;48.704;9.000;2023-06-24T18:00:10;28.90;27.50
9083;DHT22;4577;48.704;9.000;2023-06-24T18:05:02;29.00;27.70
9083;DHT22;4577;48.704;9.000;2023-06-24T18:07:28;28.50;26.80
9083;DHT22;4577;48.704;9.000;2023-06-24T18:09:54;28.60;27.50
9083;DHT22;4577;48.704;9.000;2023-06-24T18:12:20;28.60;27.70
9083;DHT22;4577;48.704;9.000;2023-06-24T18:14:46;28.80;26.90
9083;DHT22;4577;48.704;9.000;2023-06-24T18:19:38;28.80;27.40
9083;DHT22;4577;48.704;9.000;2023-06-24T18:22:07;28.70;27.60
9083;DHT22;4577;48.704;9.000;2023-06-24T18:24:33;28.50;27.70
9083;DHT22;4577;48.704;9.000;2023-06-24T18:27:00;28.40;27.10
9083;DHT22;4577;48.704;9.000;2023-06-24T18:29:26;28.30;27.90
9083;DHT22;4577;48.704;9.000;2023-06-24T18:34:17;28.30;27.80
9083;DHT22;4577;48.704;9.000;2023-06-24T18:36:43;28.20;27.40
9083;DHT22;4577;48.704;9.000;2023-06-24T18:39:10;28.00;27.70
9083;DHT22;4577;48.704;9.000;2023-06-24T18:41:35;28.20;27.90
9083;DHT22;4577;48.704;9.000;2023-06-24T18:44:01;28.00;27.80
9083;DHT22;4577;48.704;9.000;2023-06-24T18:46:28;28.20;28.40
9083;DHT22;4577;48.704;9.000;2023-06-24T18:48:54;28.10;28.50
9083;DHT22;4577;48.704;9.000;2023-06-24T18:51:20;28.30;28.60
9083;DHT22;4577;48.704;9.000;2023-06-24T18:56:12;28.20;28.60
9083;DHT22;4577;48.704;9.000;2023-06-24T19:05:57;28.00;29.00
9083;DHT22;4577;48.704;9.000;2023-06-24T19:15:41;27.50;29.40
9083;DHT22;4577;48.704;9.000;2023-06-24T19:20:32;27.10;29.50
9083;DHT22;4577;48.704;9.000;2023-06-24T19:25:24;27.10;30.80
9083;DHT22;4577;48.704;9.000;2023-06-24T19:30:17;26.90;30.10
9083;DHT22;4577;48.704;9.000;2023-06-24T19:32:43;26.90;31.30
9083;DHT22;4577;48.704;9.000;2023-06-24T19:35:09;26.80;31.20
9083;DHT22;4577;48.704;9.000;2023-06-24T19:37:36;26.70;31.20
9083;DHT22;4577;48.704;9.000;2023-06-24T19:40:02;26.60;31.10
9083;DHT22;4577;48.704;9.000;2023-06-24T19:42:29;26.40;31.30
9083;DHT22;4577;48.704;9.000;2023-06-24T19:44:55;26.30;31.40
9083;DHT22;4577;48.704;9.000;2023-06-24T19:47:20;26.30;32.10
9083;DHT22;4577;48.704;9.000;2023-06-24T19:49:54;26.20;31.80
9083;DHT22;4577;48.704;9.000;2023-06-24T19:52:20;26.20;32.10
9083;DHT22;4577;48.704;9.000;2023-06-24T19:54:48;26.10;32.30
9083;DHT22;4577;48.704;9.000;2023-06-24T19:57:14;26.10;33.30
9083;DHT22;4577;48.704;9.000;2023-06-24T19:59:40;26.10;31.90
9083;DHT22;4577;48.704;9.000;2023-06-24T20:02:06;26.10;33.30